Terminal Aerodrome Forecast
Issued by NWS

Home | Current Version | Previous Version | Text Only | Print | Product List | Glossary On
Versions: 1 2 3 4 5 6 7 8 9 10 11 12 13 14 15 16 17 18 19 20
000
FTUS44 KLZK 272334
TAFADF
TAF
KADF 272334Z 2800/2824 12007KT P6SM VCSH BKN025 OVC040
     FM280500 12006KT P6SM VCSH BKN020 OVC040 WS020/20040KT
     FM281000 15006KT P6SM VCSH OVC025 WS020/20040KT
     FM281500 20007G15KT P6SM VCSH BKN020 OVC050=

USA.gov is the U.S. government's official web portal to all federal, state and local government web resources and services.